sensor_id;sensor_type;location;lat;lon;timestamp;temperature;humidity
27781;DHT22;15167;1.318;103.762;2023-07-20T00:01:34;27.60;1.00
27781;DHT22;15167;1.318;103.762;2023-07-20T00:04:00;27.60;1.00
27781;DHT22;15167;1.318;103.762;2023-07-20T00:06:27;27.60;7.00
27781;DHT22;15167;1.318;103.762;2023-07-20T00:08:54;27.60;10.70
27781;DHT22;15167;1.318;103.762;2023-07-20T00:11:25;27.60;23.20
27781;DHT22;15167;1.318;103.762;2023-07-20T00:13:51;27.60;24.70
27781;DHT22;15167;1.318;103.762;2023-07-20T00:16:18;27.60;29.00
27781;DHT22;15167;1.318;103.762;2023-07-20T00:18:44;27.70;36.60
27781;DHT22;15167;1.318;103.762;2023-07-20T00:21:11;27.60;44.30
27781;DHT22;15167;1.318;103.762;2023-07-20T00:23:38;27.60;48.80
27781;DHT22;15167;1.318;103.762;2023-07-20T00:26:04;27.60;44.50
27781;DHT22;15167;1.318;103.762;2023-07-20T00:28:31;27.70;48.80
27781;DHT22;15167;1.318;103.762;2023-07-20T00:30:59;27.70;47.20
27781;DHT22;15167;1.318;103.762;2023-07-20T00:33:26;27.70;48.30
27781;DHT22;15167;1.318;103.762;2023-07-20T00:35:53;27.70;45.80
27781;DHT22;15167;1.318;103.762;2023-07-20T00:38:20;27.70;57.10
27781;DHT22;15167;1.318;103.762;2023-07-20T00:40:47;27.60;78.20
27781;DHT22;15167;1.318;103.762;2023-07-20T00:43:14;27.60;96.40
27781;DHT22;15167;1.318;103.762;2023-07-20T00:45:41;27.50;99.90
27781;DHT22;15167;1.318;103.762;2023-07-20T00:48:08;27.50;99.90
27781;DHT22;15167;1.318;103.762;2023-07-20T00:50:35;27.20;99.90
27781;DHT22;15167;1.318;103.762;2023-07-20T00:53:04;26.80;99.90
27781;DHT22;15167;1.318;103.762;2023-07-20T00:55:31;26.40;99.90
27781;DHT22;15167;1.318;103.762;2023-07-20T00:57:59;26.20;99.90
27781;DHT22;15167;1.318;103.762;2023-07-20T01:00:26;26.00;99.90
27781;DHT22;15167;1.318;103.762;2023-07-20T01:02:53;25.90;99.90
27781;DHT22;15167;1.318;103.762;2023-07-20T01:05:21;25.80;99.90
27781;DHT22;15167;1.318;103.762;2023-07-20T01:08:00;25.70;99.90
27781;DHT22;15167;1.318;103.762;2023-07-20T01:10:33;25.70;99.90
27781;DHT22;15167;1.318;103.762;2023-07-20T01:13:02;25.60;99.90
27781;DHT22;15167;1.318;103.762;2023-07-20T01:15:29;25.50;99.90
27781;DHT22;15167;1.318;103.762;2023-07-20T01:17:56;25.50;99.90
27781;DHT22;15167;1.318;103.762;2023-07-20T01:20:23;25.50;99.90
27781;DHT22;15167;1.318;103.762;2023-07-20T01:23:14;25.40;99.90
27781;DHT22;15167;1.318;103.762;2023-07-20T01:31:36;25.20;99.90
27781;DHT22;15167;1.318;103.762;2023-07-20T01:34:04;25.20;99.90
27781;DHT22;15167;1.318;103.762;2023-07-20T01:36:35;25.10;99.90
27781;DHT22;15167;1.318;103.762;2023-07-20T01:39:02;25.00;99.90
27781;DHT22;15167;1.318;103.762;2023-07-20T01:41:31;24.90;99.90
27781;DHT22;15167;1.318;103.762;2023-07-20T01:44:00;24.90;99.90
27781;DHT22;15167;1.318;103.762;2023-07-20T01:46:27;25.00;99.90
27781;DHT22;15167;1.318;103.762;2023-07-20T01:48:54;25.10;99.90
27781;DHT22;15167;1.318;103.762;2023-07-20T01:51:21;25.20;99.90
27781;DHT22;15167;1.318;103.762;2023-07-20T01:53:48;25.30;99.90
27781;DHT22;15167;1.318;103.762;2023-07-20T01:56:14;25.40;99.90
27781;DHT22;15167;1.318;103.762;2023-07-20T01:58:41;25.50;99.90
27781;DHT22;15167;1.318;103.762;2023-07-20T02:01:07;25.50;99.90
27781;DHT22;15167;1.318;103.762;2023-07-20T02:03:34;25.60;99.90
27781;DHT22;15167;1.318;103.762;2023-07-20T02:06:01;25.70;99.90
27781;DHT22;15167;1.318;103.762;2023-07-20T02:08:28;25.70;99.90
27781;DHT22;15167;1.318;103.762;2023-07-20T02:10:54;25.70;99.90
27781;DHT22;15167;1.318;103.762;2023-07-20T02:13:21;25.60;99.90
27781;DHT22;15167;1.318;103.762;2023-07-20T02:15:47;25.20;99.90
27781;DHT22;15167;1.318;103.762;2023-07-20T02:18:15;25.10;99.90
27781;DHT22;15167;1.318;103.762;2023-07-20T02:20:42;25.10;99.90
27781;DHT22;15167;1.318;103.762;2023-07-20T02:23:09;25.10;99.90
27781;DHT22;15167;1.318;103.762;2023-07-20T02:25:36;25.00;99.90
27781;DHT22;15167;1.318;103.762;2023-07-20T02:28:04;24.40;99.90
27781;DHT22;15167;1.318;103.762;2023-07-20T02:30:31;24.10;99.90
27781;DHT22;15167;1.318;103.762;2023-07-20T02:32:57;24.10;99.90
27781;DHT22;15167;1.318;103.762;2023-07-20T02:35:24;24.10;99.90
27781;DHT22;15167;1.318;103.762;2023-07-20T02:37:51;24.30;99.90
27781;DHT22;15167;1.318;103.762;2023-07-20T02:40:18;24.50;99.90
27781;DHT22;15167;1.318;103.762;2023-07-20T02:42:45;24.70;99.90
27781;DHT22;15167;1.318;103.762;2023-07-20T02:45:11;24.80;99.90
27781;DHT22;15167;1.318;103.762;2023-07-20T02:47:38;25.00;99.90
27781;DHT22;15167;1.318;103.762;2023-07-20T02:50:07;25.10;99.90
27781;DHT22;15167;1.318;103.762;2023-07-20T02:52:34;25.20;99.90
27781;DHT22;15167;1.318;103.762;2023-07-20T02:55:01;25.30;99.90
27781;DHT22;15167;1.318;103.762;2023-07-20T02:57:27;25.30;99.90
27781;DHT22;15167;1.318;103.762;2023-07-20T02:59:54;25.40;99.90
27781;DHT22;15167;1.318;103.762;2023-07-20T03:02:21;25.50;99.90
27781;DHT22;15167;1.318;103.762;2023-07-20T03:04:47;25.50;99.90
27781;DHT22;15167;1.318;103.762;2023-07-20T03:07:14;25.60;99.90
27781;DHT22;15167;1.318;103.762;2023-07-20T03:09:40;25.70;99.90
27781;DHT22;15167;1.318;103.762;2023-07-20T03:12:07;25.60;99.90
27781;DHT22;15167;1.318;103.762;2023-07-20T03:14:34;25.60;99.90
27781;DHT22;15167;1.318;103.762;2023-07-20T03:17:01;25.60;99.90
27781;DHT22;15167;1.318;103.762;2023-07-20T03:19:27;25.70;99.90
27781;DHT22;15167;1.318;103.762;2023-07-20T03:21:54;25.60;99.90
27781;DHT22;15167;1.318;103.762;2023-07-20T03:24:20;25.60;99.90
27781;DHT22;15167;1.318;103.762;2023-07-20T03:26:47;25.70;99.90
27781;DHT22;15167;1.318;103.762;2023-07-20T03:29:13;25.70;99.90
27781;DHT22;15167;1.318;103.762;2023-07-20T03:31:42;25.70;99.90
27781;DHT22;15167;1.318;103.762;2023-07-20T03:34:08;25.70;99.90
27781;DHT22;15167;1.318;103.762;2023-07-20T03:36:35;25.70;99.90
27781;DHT22;15167;1.318;103.762;2023-07-20T03:39:01;25.70;99.90
27781;DHT22;15167;1.318;103.762;2023-07-20T03:41:29;25.70;99.90
27781;DHT22;15167;1.318;103.762;2023-07-20T03:43:55;25.70;99.90
27781;DHT22;15167;1.318;103.762;2023-07-20T03:46:22;25.70;99.90
27781;DHT22;15167;1.318;103.762;2023-07-20T03:48:48;25.70;99.90
27781;DHT22;15167;1.318;103.762;2023-07-20T03:51:15;25.80;99.90
27781;DHT22;15167;1.318;103.762;2023-07-20T03:53:42;25.80;99.90
27781;DHT22;15167;1.318;103.762;2023-07-20T03:56:08;25.80;99.90
27781;DHT22;15167;1.318;103.762;2023-07-20T03:58:35;25.80;99.90
27781;DHT22;15167;1.318;103.762;2023-07-20T04:01:01;25.80;99.90
27781;DHT22;15167;1.318;103.762;2023-07-20T04:03:29;25.90;99.90
27781;DHT22;15167;1.318;103.762;2023-07-20T04:05:56;25.90;99.90
27781;DHT22;15167;1.318;103.762;2023-07-20T04:08:25;25.90;99.90
27781;DHT22;15167;1.318;103.762;2023-07-20T04:10:52;25.90;99.90
27781;DHT22;15167;1.318;103.762;2023-07-20T04:13:19;26.00;99.90
27781;DHT22;15167;1.318;103.762;2023-07-20T04:15:45;26.00;99.90
27781;DHT22;15167;1.318;103.762;2023-07-20T04:18:12;26.00;99.90
27781;DHT22;15167;1.318;103.762;2023-07-20T04:20:39;26.10;99.90
27781;DHT22;15167;1.318;103.762;2023-07-20T04:23:05;26.10;99.90
27781;DHT22;15167;1.318;103.762;2023-07-20T04:25:32;26.10;99.90
27781;DHT22;15167;1.318;103.762;2023-07-20T04:28:08;26.10;99.90
27781;DHT22;15167;1.318;103.762;2023-07-20T04:30:37;26.10;99.90
27781;DHT22;15167;1.318;103.762;2023-07-20T04:33:06;26.20;99.90
27781;DHT22;15167;1.318;103.762;2023-07-20T04:35:52;26.20;99.90
27781;DHT22;15167;1.318;103.762;2023-07-20T04:38:20;26.30;99.90
27781;DHT22;15167;1.318;103.762;2023-07-20T04:40:48;26.30;99.90
27781;DHT22;15167;1.318;103.762;2023-07-20T04:43:17;26.40;99.90
27781;DHT22;15167;1.318;103.762;2023-07-20T04:45:43;26.40;99.90
27781;DHT22;15167;1.318;103.762;2023-07-20T04:48:13;26.50;99.90
27781;DHT22;15167;1.318;103.762;2023-07-20T04:50:42;26.60;99.90
27781;DHT22;15167;1.318;103.762;2023-07-20T04:53:12;26.70;99.90
27781;DHT22;15167;1.318;103.762;2023-07-20T04:55:39;26.80;99.90
27781;DHT22;15167;1.318;103.762;2023-07-20T04:58:06;27.00;99.90
27781;DHT22;15167;1.318;103.762;2023-07-20T05:00:33;27.00;99.90
27781;DHT22;15167;1.318;103.762;2023-07-20T05:03:00;27.10;99.90
27781;DHT22;15167;1.318;103.762;2023-07-20T05:05:27;27.30;99.90
27781;DHT22;15167;1.318;103.762;2023-07-20T05:07:53;27.40;99.90
27781;DHT22;15167;1.318;103.762;2023-07-20T05:10:20;27.60;99.90
27781;DHT22;15167;1.318;103.762;2023-07-20T05:12:47;27.70;99.90
27781;DHT22;15167;1.318;103.762;2023-07-20T05:15:13;27.70;99.90
27781;DHT22;15167;1.318;103.762;2023-07-20T05:17:40;27.80;99.90
27781;DHT22;15167;1.318;103.762;2023-07-20T05:20:07;27.80;99.90
27781;DHT22;15167;1.318;103.762;2023-07-20T05:22:36;27.70;99.90
27781;DHT22;15167;1.318;103.762;2023-07-20T05:25:07;27.80;99.90
27781;DHT22;15167;1.318;103.762;2023-07-20T05:27:36;27.80;99.90
27781;DHT22;15167;1.318;103.762;2023-07-20T05:30:03;27.80;99.90
27781;DHT22;15167;1.318;103.762;2023-07-20T05:32:30;27.90;99.90
27781;DHT22;15167;1.318;103.762;2023-07-20T05:34:57;28.00;99.90
27781;DHT22;15167;1.318;103.762;2023-07-20T05:37:23;28.10;99.90
27781;DHT22;15167;1.318;103.762;2023-07-20T05:39:50;28.10;99.90
27781;DHT22;15167;1.318;103.762;2023-07-20T05:42:17;28.00;99.90
27781;DHT22;15167;1.318;103.762;2023-07-20T05:44:43;28.10;99.90
27781;DHT22;15167;1.318;103.762;2023-07-20T05:47:10;28.10;99.90
27781;DHT22;15167;1.318;103.762;2023-07-20T05:49:36;28.20;99.90
27781;DHT22;15167;1.318;103.762;2023-07-20T05:52:03;28.30;99.90
27781;DHT22;15167;1.318;103.762;2023-07-20T05:54:30;28.50;99.90
27781;DHT22;15167;1.318;103.762;2023-07-20T05:56:56;28.70;99.90
27781;DHT22;15167;1.318;103.762;2023-07-20T05:59:24;28.80;99.90
27781;DHT22;15167;1.318;103.762;2023-07-20T06:01:50;28.80;99.90
27781;DHT22;15167;1.318;103.762;2023-07-20T06:04:17;28.70;99.90
27781;DHT22;15167;1.318;103.762;2023-07-20T06:06:43;28.50;99.90
27781;DHT22;15167;1.318;103.762;2023-07-20T06:09:10;28.40;99.90
27781;DHT22;15167;1.318;103.762;2023-07-20T06:11:41;28.30;99.90
27781;DHT22;15167;1.318;103.762;2023-07-20T06:14:07;28.10;99.90
27781;DHT22;15167;1.318;103.762;2023-07-20T06:16:34;28.00;99.90
27781;DHT22;15167;1.318;103.762;2023-07-20T06:19:01;27.80;99.90
27781;DHT22;15167;1.318;103.762;2023-07-20T06:21:27;27.80;99.90
27781;DHT22;15167;1.318;103.762;2023-07-20T06:23:54;27.40;99.90
27781;DHT22;15167;1.318;103.762;2023-07-20T06:26:20;27.10;99.90
27781;DHT22;15167;1.318;103.762;2023-07-20T06:28:47;26.90;99.90
27781;DHT22;15167;1.318;103.762;2023-07-20T06:31:14;26.60;99.90
27781;DHT22;15167;1.318;103.762;2023-07-20T06:33:40;25.90;99.90
27781;DHT22;15167;1.318;103.762;2023-07-20T06:36:07;25.20;99.90
27781;DHT22;15167;1.318;103.762;2023-07-20T06:38:33;24.00;99.90
27781;DHT22;15167;1.318;103.762;2023-07-20T06:41:00;23.20;99.90
27781;DHT22;15167;1.318;103.762;2023-07-20T06:43:26;22.90;99.90
27781;DHT22;15167;1.318;103.762;2023-07-20T06:45:53;22.70;99.90
27781;DHT22;15167;1.318;103.762;2023-07-20T06:48:22;22.70;99.90
27781;DHT22;15167;1.318;103.762;2023-07-20T06:50:49;22.90;99.90
27781;DHT22;15167;1.318;103.762;2023-07-20T06:53:15;23.20;99.90
27781;DHT22;15167;1.318;103.762;2023-07-20T06:55:43;23.20;99.90
27781;DHT22;15167;1.318;103.762;2023-07-20T06:58:11;22.70;99.90
27781;DHT22;15167;1.318;103.762;2023-07-20T07:00:38;22.40;99.90
27781;DHT22;15167;1.318;103.762;2023-07-20T07:03:04;22.20;99.90
27781;DHT22;15167;1.318;103.762;2023-07-20T07:05:32;22.10;99.90
27781;DHT22;15167;1.318;103.762;2023-07-20T07:08:01;22.30;99.90
27781;DHT22;15167;1.318;103.762;2023-07-20T07:10:28;22.40;99.90
27781;DHT22;15167;1.318;103.762;2023-07-20T07:12:54;22.60;99.90
27781;DHT22;15167;1.318;103.762;2023-07-20T07:15:21;22.80;99.90
27781;DHT22;15167;1.318;103.762;2023-07-20T07:17:47;22.80;99.90
27781;DHT22;15167;1.318;103.762;2023-07-20T07:20:14;22.70;99.90
27781;DHT22;15167;1.318;103.762;2023-07-20T07:22:40;22.50;99.90
27781;DHT22;15167;1.318;103.762;2023-07-20T07:25:10;22.40;99.90
27781;DHT22;15167;1.318;103.762;2023-07-20T07:27:37;22.50;99.90
27781;DHT22;15167;1.318;103.762;2023-07-20T07:30:04;22.60;99.90
27781;DHT22;15167;1.318;103.762;2023-07-20T07:32:31;22.80;99.90
27781;DHT22;15167;1.318;103.762;2023-07-20T07:35:00;22.70;99.90
27781;DHT22;15167;1.318;103.762;2023-07-20T07:37:26;22.50;99.90
27781;DHT22;15167;1.318;103.762;2023-07-20T07:39:53;22.50;99.90
27781;DHT22;15167;1.318;103.762;2023-07-20T07:42:20;22.50;99.90
27781;DHT22;15167;1.318;103.762;2023-07-20T07:44:46;22.70;99.90
27781;DHT22;15167;1.318;103.762;2023-07-20T07:47:13;22.70;99.90
27781;DHT22;15167;1.318;103.762;2023-07-20T07:49:40;22.60;99.90
27781;DHT22;15167;1.318;103.762;2023-07-20T07:52:07;22.50;99.90
27781;DHT22;15167;1.318;103.762;2023-07-20T07:54:33;22.60;99.90
27781;DHT22;15167;1.318;103.762;2023-07-20T07:57:00;22.90;99.90
27781;DHT22;15167;1.318;103.762;2023-07-20T07:59:27;23.10;99.90
27781;DHT22;15167;1.318;103.762;2023-07-20T08:01:55;22.60;99.90
27781;DHT22;15167;1.318;103.762;2023-07-20T08:04:21;23.40;99.90
27781;DHT22;15167;1.318;103.762;2023-07-20T08:06:48;23.60;99.90
27781;DHT22;15167;1.318;103.762;2023-07-20T08:09:14;23.70;99.90
27781;DHT22;15167;1.318;103.762;2023-07-20T08:11:41;23.70;99.90
27781;DHT22;15167;1.318;103.762;2023-07-20T08:14:07;23.80;99.90
27781;DHT22;15167;1.318;103.762;2023-07-20T08:16:34;24.00;99.90
27781;DHT22;15167;1.318;103.762;2023-07-20T08:19:00;24.20;99.90
27781;DHT22;15167;1.318;103.762;2023-07-20T08:21:28;24.30;99.90
27781;DHT22;15167;1.318;103.762;2023-07-20T08:23:55;24.50;99.90
27781;DHT22;15167;1.318;103.762;2023-07-20T08:26:22;24.50;99.90
27781;DHT22;15167;1.318;103.762;2023-07-20T08:28:49;24.60;99.90
27781;DHT22;15167;1.318;103.762;2023-07-20T08:31:15;24.60;99.90
27781;DHT22;15167;1.318;103.762;2023-07-20T08:33:42;24.60;99.90
27781;DHT22;15167;1.318;103.762;2023-07-20T08:36:09;24.60;99.90
27781;DHT22;15167;1.318;103.762;2023-07-20T08:38:35;24.70;99.90
27781;DHT22;15167;1.318;103.762;2023-07-20T08:41:02;24.80;99.90
27781;DHT22;15167;1.318;103.762;2023-07-20T08:43:29;25.00;99.90
27781;DHT22;15167;1.318;103.762;2023-07-20T08:45:56;25.10;99.90
27781;DHT22;15167;1.318;103.762;2023-07-20T08:48:24;25.20;99.90
27781;DHT22;15167;1.318;103.762;2023-07-20T08:50:53;25.30;99.90
27781;DHT22;15167;1.318;103.762;2023-07-20T08:53:20;25.40;99.90
27781;DHT22;15167;1.318;103.762;2023-07-20T08:55:50;25.40;99.90
27781;DHT22;15167;1.318;103.762;2023-07-20T08:58:17;25.50;99.90
27781;DHT22;15167;1.318;103.762;2023-07-20T09:00:44;25.50;99.90
27781;DHT22;15167;1.318;103.762;2023-07-20T09:03:12;25.50;99.90
27781;DHT22;15167;1.318;103.762;2023-07-20T09:05:39;25.60;99.90
27781;DHT22;15167;1.318;103.762;2023-07-20T09:08:06;25.60;99.90
27781;DHT22;15167;1.318;103.762;2023-07-20T09:10:33;25.70;99.90
27781;DHT22;15167;1.318;103.762;2023-07-20T09:13:00;25.70;99.90
27781;DHT22;15167;1.318;103.762;2023-07-20T09:15:26;25.70;99.90
27781;DHT22;15167;1.318;103.762;2023-07-20T09:17:54;25.70;99.90
27781;DHT22;15167;1.318;103.762;2023-07-20T09:20:21;25.80;99.90
27781;DHT22;15167;1.318;103.762;2023-07-20T09:22:48;25.80;99.90
27781;DHT22;15167;1.318;103.762;2023-07-20T09:25:17;25.80;99.90
27781;DHT22;15167;1.318;103.762;2023-07-20T09:27:47;25.90;99.90
27781;DHT22;15167;1.318;103.762;2023-07-20T09:30:17;25.90;99.90
27781;DHT22;15167;1.318;103.762;2023-07-20T09:32:45;25.90;99.90
27781;DHT22;15167;1.318;103.762;2023-07-20T09:35:15;26.00;99.90
27781;DHT22;15167;1.318;103.762;2023-07-20T09:37:50;26.00;99.90
27781;DHT22;15167;1.318;103.762;2023-07-20T09:40:22;26.00;99.90
27781;DHT22;15167;1.318;103.762;2023-07-20T09:42:52;26.10;99.90
27781;DHT22;15167;1.318;103.762;2023-07-20T09:45:35;26.10;99.90
27781;DHT22;15167;1.318;103.762;2023-07-20T09:48:09;26.10;99.90
27781;DHT22;15167;1.318;103.762;2023-07-20T09:50:40;26.10;99.90
27781;DHT22;15167;1.318;103.762;2023-07-20T09:53:13;26.10;99.90
27781;DHT22;15167;1.318;103.762;2023-07-20T09:55:41;26.20;99.90
27781;DHT22;15167;1.318;103.762;2023-07-20T09:58:11;26.20;99.90
27781;DHT22;15167;1.318;103.762;2023-07-20T10:00:38;26.20;99.90
27781;DHT22;15167;1.318;103.762;2023-07-20T10:03:05;26.20;99.90
27781;DHT22;15167;1.318;103.762;2023-07-20T10:05:40;26.30;99.90
27781;DHT22;15167;1.318;103.762;2023-07-20T10:08:11;26.30;99.90
27781;DHT22;15167;1.318;103.762;2023-07-20T10:10:41;26.30;99.90
27781;DHT22;15167;1.318;103.762;2023-07-20T10:13:16;26.30;99.90
27781;DHT22;15167;1.318;103.762;2023-07-20T10:15:47;26.40;99.90
27781;DHT22;15167;1.318;103.762;2023-07-20T10:18:55;26.40;99.90
27781;DHT22;15167;1.318;103.762;2023-07-20T10:21:26;26.40;99.90
27781;DHT22;15167;1.318;103.762;2023-07-20T10:23:54;26.40;99.90
27781;DHT22;15167;1.318;103.762;2023-07-20T10:26:20;26.40;99.90
27781;DHT22;15167;1.318;103.762;2023-07-20T10:28:47;26.40;99.90
27781;DHT22;15167;1.318;103.762;2023-07-20T10:31:14;26.40;99.90
27781;DHT22;15167;1.318;103.762;2023-07-20T10:33:41;26.40;99.90
27781;DHT22;15167;1.318;103.762;2023-07-20T10:36:09;26.40;99.90
27781;DHT22;15167;1.318;103.762;2023-07-20T10:41:27;26.40;99.90
27781;DHT22;15167;1.318;103.762;2023-07-20T10:44:09;26.40;99.90
27781;DHT22;15167;1.318;103.762;2023-07-20T10:49:07;26.40;99.90
27781;DHT22;15167;1.318;103.762;2023-07-20T10:51:48;26.50;99.90
27781;DHT22;15167;1.318;103.762;2023-07-20T10:56:47;26.50;99.90
27781;DHT22;15167;1.318;103.762;2023-07-20T10:59:36;26.50;99.90
27781;DHT22;15167;1.318;103.762;2023-07-20T11:02:09;26.50;99.90
27781;DHT22;15167;1.318;103.762;2023-07-20T11:04:43;26.50;99.90
27781;DHT22;15167;1.318;103.762;2023-07-20T11:07:11;26.60;99.90
27781;DHT22;15167;1.318;103.762;2023-07-20T11:09:41;26.60;99.90
27781;DHT22;15167;1.318;103.762;2023-07-20T11:12:13;26.60;99.90
27781;DHT22;15167;1.318;103.762;2023-07-20T11:14:56;26.60;99.90
27781;DHT22;15167;1.318;103.762;2023-07-20T11:17:30;26.60;99.90
27781;DHT22;15167;1.318;103.762;2023-07-20T11:19:58;26.60;99.90
27781;DHT22;15167;1.318;103.762;2023-07-20T11:22:27;26.60;99.90
27781;DHT22;15167;1.318;103.762;2023-07-20T11:24:57;26.60;99.90
27781;DHT22;15167;1.318;103.762;2023-07-20T11:27:24;26.60;99.90
27781;DHT22;15167;1.318;103.762;2023-07-20T11:29:51;26.60;99.90
27781;DHT22;15167;1.318;103.762;2023-07-20T11:32:24;26.60;99.90
27781;DHT22;15167;1.318;103.762;2023-07-20T11:34:51;26.60;99.90
27781;DHT22;15167;1.318;103.762;2023-07-20T11:37:17;26.60;99.90
27781;DHT22;15167;1.318;103.762;2023-07-20T11:39:44;26.60;99.90
27781;DHT22;15167;1.318;103.762;2023-07-20T11:42:12;26.60;99.90
27781;DHT22;15167;1.318;103.762;2023-07-20T11:44:39;26.60;99.90
27781;DHT22;15167;1.318;103.762;2023-07-20T11:47:08;26.60;99.90
27781;DHT22;15167;1.318;103.762;2023-07-20T11:49:41;26.60;99.90
27781;DHT22;15167;1.318;103.762;2023-07-20T11:52:14;26.60;99.90
27781;DHT22;15167;1.318;103.762;2023-07-20T11:54:42;26.60;99.90
27781;DHT22;15167;1.318;103.762;2023-07-20T11:57:19;26.60;99.90
27781;DHT22;15167;1.318;103.762;2023-07-20T12:00:01;26.60;99.90
27781;DHT22;15167;1.318;103.762;2023-07-20T12:02:31;26.60;99.90
27781;DHT22;15167;1.318;103.762;2023-07-20T12:04:58;26.60;99.90
27781;DHT22;15167;1.318;103.762;2023-07-20T12:07:28;26.60;99.90
27781;DHT22;15167;1.318;103.762;2023-07-20T12:10:09;26.70;99.90
27781;DHT22;15167;1.318;103.762;2023-07-20T12:12:43;26.70;99.90
27781;DHT22;15167;1.318;103.762;2023-07-20T12:15:17;26.70;99.90
27781;DHT22;15167;1.318;103.762;2023-07-20T12:17:50;26.70;99.90
27781;DHT22;15167;1.318;103.762;2023-07-20T12:20:31;26.70;99.90
27781;DHT22;15167;1.318;103.762;2023-07-20T12:23:05;26.70;99.90
27781;DHT22;15167;1.318;103.762;2023-07-20T12:25:38;26.70;99.90
27781;DHT22;15167;1.318;103.762;2023-07-20T12:28:11;26.70;99.90
27781;DHT22;15167;1.318;103.762;2023-07-20T12:30:38;26.70;99.90
27781;DHT22;15167;1.318;103.762;2023-07-20T12:33:05;26.70;99.90
27781;DHT22;15167;1.318;103.762;2023-07-20T12:35:32;26.70;99.90
27781;DHT22;15167;1.318;103.762;2023-07-20T12:37:59;26.70;99.90
27781;DHT22;15167;1.318;103.762;2023-07-20T12:40:26;26.70;99.90
27781;DHT22;15167;1.318;103.762;2023-07-20T12:42:53;26.70;99.90
27781;DHT22;15167;1.318;103.762;2023-07-20T12:45:20;26.70;99.90
27781;DHT22;15167;1.318;103.762;2023-07-20T12:47:47;26.70;99.90
27781;DHT22;15167;1.318;103.762;2023-07-20T12:50:14;26.70;99.90
27781;DHT22;15167;1.318;103.762;2023-07-20T12:52:41;26.70;99.90
27781;DHT22;15167;1.318;103.762;2023-07-20T12:55:09;26.70;99.90
27781;DHT22;15167;1.318;103.762;2023-07-20T12:57:37;26.80;99.90
27781;DHT22;15167;1.318;103.762;2023-07-20T13:00:06;26.70;99.90
27781;DHT22;15167;1.318;103.762;2023-07-20T13:02:34;26.80;99.90
27781;DHT22;15167;1.318;103.762;2023-07-20T13:05:01;26.70;99.90
27781;DHT22;15167;1.318;103.762;2023-07-20T13:07:36;26.80;99.90
27781;DHT22;15167;1.318;103.762;2023-07-20T13:10:04;26.80;99.90
27781;DHT22;15167;1.318;103.762;2023-07-20T13:12:33;26.80;99.90
27781;DHT22;15167;1.318;103.762;2023-07-20T13:15:04;26.70;99.90
27781;DHT22;15167;1.318;103.762;2023-07-20T13:17:38;26.80;99.90
27781;DHT22;15167;1.318;103.762;2023-07-20T13:20:06;26.80;99.90
27781;DHT22;15167;1.318;103.762;2023-07-20T13:22:33;26.80;99.90
27781;DHT22;15167;1.318;103.762;2023-07-20T13:25:00;26.80;99.90
27781;DHT22;15167;1.318;103.762;2023-07-20T13:27:27;26.80;99.90
27781;DHT22;15167;1.318;103.762;2023-07-20T13:29:54;26.80;99.90
27781;DHT22;15167;1.318;103.762;2023-07-20T13:32:22;26.80;99.90
27781;DHT22;15167;1.318;103.762;2023-07-20T13:34:49;26.80;99.90
27781;DHT22;15167;1.318;103.762;2023-07-20T13:37:16;26.80;99.90
27781;DHT22;15167;1.318;103.762;2023-07-20T13:39:42;26.80;99.90
27781;DHT22;15167;1.318;103.762;2023-07-20T13:42:09;26.80;99.90
27781;DHT22;15167;1.318;103.762;2023-07-20T13:44:41;26.80;99.90
27781;DHT22;15167;1.318;103.762;2023-07-20T13:47:08;26.80;99.90
27781;DHT22;15167;1.318;103.762;2023-07-20T13:49:34;26.80;99.90
27781;DHT22;15167;1.318;103.762;2023-07-20T13:52:01;26.90;99.90
27781;DHT22;15167;1.318;103.762;2023-07-20T13:54:28;26.80;99.90
27781;DHT22;15167;1.318;103.762;2023-07-20T13:56:54;26.90;99.90
27781;DHT22;15167;1.318;103.762;2023-07-20T13:59:21;26.90;99.90
27781;DHT22;15167;1.318;103.762;2023-07-20T14:01:47;26.90;99.90
27781;DHT22;15167;1.318;103.762;2023-07-20T14:04:15;26.80;99.90
27781;DHT22;15167;1.318;103.762;2023-07-20T14:06:42;26.90;99.90
27781;DHT22;15167;1.318;103.762;2023-07-20T14:09:08;26.80;99.90
27781;DHT22;15167;1.318;103.762;2023-07-20T14:11:35;26.90;99.90
27781;DHT22;15167;1.318;103.762;2023-07-20T14:14:02;26.90;99.90
27781;DHT22;15167;1.318;103.762;2023-07-20T14:16:29;26.90;99.90
27781;DHT22;15167;1.318;103.762;2023-07-20T14:18:55;26.90;99.90
27781;DHT22;15167;1.318;103.762;2023-07-20T14:21:22;26.90;99.90
27781;DHT22;15167;1.318;103.762;2023-07-20T14:23:50;26.90;99.90
27781;DHT22;15167;1.318;103.762;2023-07-20T14:26:17;26.80;99.90
27781;DHT22;15167;1.318;103.762;2023-07-20T14:28:44;26.90;99.90
27781;DHT22;15167;1.318;103.762;2023-07-20T14:31:10;26.80;99.90
27781;DHT22;15167;1.318;103.762;2023-07-20T14:33:37;26.90;99.90
27781;DHT22;15167;1.318;103.762;2023-07-20T14:36:04;26.80;99.90
27781;DHT22;15167;1.318;103.762;2023-07-20T14:38:34;26.80;99.90
27781;DHT22;15167;1.318;103.762;2023-07-20T14:41:02;26.80;99.90
27781;DHT22;15167;1.318;103.762;2023-07-20T14:43:28;26.90;99.90
27781;DHT22;15167;1.318;103.762;2023-07-20T14:45:55;26.90;99.90
27781;DHT22;15167;1.318;103.762;2023-07-20T14:48:22;26.90;99.90
27781;DHT22;15167;1.318;103.762;2023-07-20T14:50:49;26.80;99.90
27781;DHT22;15167;1.318;103.762;2023-07-20T14:53:16;26.90;99.90
27781;DHT22;15167;1.318;103.762;2023-07-20T14:55:43;26.90;99.90
27781;DHT22;15167;1.318;103.762;2023-07-20T14:58:10;26.90;99.90
27781;DHT22;15167;1.318;103.762;2023-07-20T15:00:37;26.90;99.90
27781;DHT22;15167;1.318;103.762;2023-07-20T15:03:04;26.90;99.90
27781;DHT22;15167;1.318;103.762;2023-07-20T15:05:31;26.80;99.90
27781;DHT22;15167;1.318;103.762;2023-07-20T15:07:58;26.80;99.90
27781;DHT22;15167;1.318;103.762;2023-07-20T15:10:25;26.80;99.90
27781;DHT22;15167;1.318;103.762;2023-07-20T15:12:51;26.90;99.90
27781;DHT22;15167;1.318;103.762;2023-07-20T15:15:18;26.90;99.90
27781;DHT22;15167;1.318;103.762;2023-07-20T15:17:45;26.90;99.90
27781;DHT22;15167;1.318;103.762;2023-07-20T15:20:13;26.90;99.90
27781;DHT22;15167;1.318;103.762;2023-07-20T15:22:40;26.90;99.90
27781;DHT22;15167;1.318;103.762;2023-07-20T15:25:07;26.90;99.90
27781;DHT22;15167;1.318;103.762;2023-07-20T15:27:35;26.90;99.90
27781;DHT22;15167;1.318;103.762;2023-07-20T15:30:01;26.90;99.90
27781;DHT22;15167;1.318;103.762;2023-07-20T15:32:28;26.90;99.90
27781;DHT22;15167;1.318;103.762;2023-07-20T15:34:54;26.90;99.90